createdAt,value
2022-11-04T00:01:53.874Z,11.40
2022-11-04T00:04:21.044Z,11.50
2022-11-04T00:06:47.781Z,11.60
2022-11-04T00:09:23.902Z,11.50
2022-11-04T00:12:08.937Z,11.60
2022-11-04T00:14:35.626Z,11.60
2022-11-04T00:17:22.180Z,11.60
2022-11-04T00:20:08.294Z,11.60
2022-11-04T00:22:53.521Z,11.60
2022-11-04T00:25:38.707Z,11.60
2022-11-04T00:28:34.090Z,11.50
2022-11-04T00:31:21.574Z,11.60
2022-11-04T00:33:48.884Z,11.60
2022-11-04T00:36:15.445Z,11.50
2022-11-04T00:38:42.116Z,11.60
2022-11-04T00:41:26.061Z,11.50
2022-11-04T00:43:53.507Z,11.50
2022-11-04T00:46:20.077Z,11.50
2022-11-04T00:48:46.646Z,11.50
2022-11-04T00:53:44.643Z,11.50
2022-11-04T00:56:11.187Z,11.50
2022-11-04T00:58:37.743Z,11.50
2022-11-04T01:01:10.563Z,11.50
2022-11-04T01:03:37.224Z,11.50
2022-11-04T01:06:03.822Z,11.50
2022-11-04T01:08:30.379Z,11.50
2022-11-04T01:10:56.928Z,11.50
2022-11-04T01:13:23.484Z,11.40
2022-11-04T01:15:50.040Z,11.40
2022-11-04T01:18:16.592Z,11.40
2022-11-04T01:20:43.151Z,11.40
2022-11-04T01:23:09.775Z,11.40
2022-11-04T01:25:39.306Z,11.40
2022-11-04T01:28:06.027Z,11.40
2022-11-04T01:30:32.815Z,11.40
2022-11-04T01:32:59.367Z,11.40
2022-11-04T01:35:25.899Z,11.40
2022-11-04T01:37:52.441Z,11.40
2022-11-04T01:40:19.264Z,11.40
2022-11-04T01:42:45.818Z,11.40
2022-11-04T01:45:13.319Z,11.40
2022-11-04T01:47:43.865Z,11.40
2022-11-04T01:50:14.474Z,11.40
2022-11-04T01:52:40.988Z,11.40
2022-11-04T01:55:09.794Z,11.40
2022-11-04T01:57:37.075Z,11.40
2022-11-04T02:00:04.853Z,11.40
2022-11-04T02:02:31.530Z,11.40
2022-11-04T02:04:58.142Z,11.30
2022-11-04T02:07:24.823Z,11.30
2022-11-04T02:09:51.378Z,11.40
2022-11-04T02:12:36.704Z,11.40
2022-11-04T02:15:03.488Z,11.40
2022-11-04T02:17:36.787Z,11.40
2022-11-04T02:20:16.875Z,11.30
2022-11-04T02:23:02.358Z,11.30
2022-11-04T02:25:28.971Z,11.20
2022-11-04T02:28:00.589Z,11.20
2022-11-04T02:30:27.289Z,11.20
2022-11-04T02:33:00.305Z,11.20
2022-11-04T02:35:40.742Z,11.20
2022-11-04T02:38:25.975Z,11.10
2022-11-04T02:40:52.514Z,11.10
2022-11-04T02:43:37.326Z,11.10
2022-11-04T02:46:27.185Z,11.10
2022-11-04T02:48:55.394Z,11.10
2022-11-04T02:51:31.351Z,11.00
2022-11-04T02:54:13.234Z,11.00
2022-11-04T02:56:41.097Z,11.00
2022-11-04T02:59:09.789Z,11.00
2022-11-04T03:01:37.278Z,11.00
2022-11-04T03:04:06.235Z,10.90
2022-11-04T03:06:32.768Z,10.90
2022-11-04T03:08:59.318Z,10.80
2022-11-04T03:11:25.934Z,10.80
2022-11-04T03:13:54.757Z,10.70
2022-11-04T03:16:22.919Z,10.70
2022-11-04T03:18:52.832Z,10.70
2022-11-04T03:21:20.032Z,10.70
2022-11-04T03:23:46.597Z,10.70
2022-11-04T03:26:23.971Z,10.70
2022-11-04T03:28:52.487Z,10.70
2022-11-04T03:31:23.900Z,10.60
2022-11-04T03:33:50.966Z,10.60
2022-11-04T03:36:17.695Z,10.60
2022-11-04T03:38:44.263Z,10.60
2022-11-04T03:41:14.508Z,10.40
2022-11-04T03:43:41.102Z,10.40
2022-11-04T03:46:07.640Z,10.40
2022-11-04T03:48:34.254Z,10.40
2022-11-04T03:51:01.246Z,10.40
2022-11-04T03:53:27.789Z,10.40
2022-11-04T03:56:06.313Z,10.40
2022-11-04T03:58:36.730Z,10.40
2022-11-04T04:01:18.065Z,10.40
2022-11-04T04:03:46.890Z,10.30
2022-11-04T04:06:15.526Z,10.20
2022-11-04T04:08:42.091Z,10.10
2022-11-04T04:11:13.292Z,9.90
2022-11-04T04:13:49.149Z,9.90
2022-11-04T04:16:16.898Z,9.80
2022-11-04T04:19:03.740Z,9.80
2022-11-04T04:21:35.123Z,9.60
2022-11-04T04:24:20.942Z,9.60
2022-11-04T04:27:05.817Z,9.60
2022-11-04T04:29:32.357Z,9.50
2022-11-04T04:31:58.958Z,9.60
2022-11-04T04:34:25.993Z,9.60
2022-11-04T04:36:57.489Z,9.60
2022-11-04T04:39:43.871Z,9.70
2022-11-04T04:42:28.843Z,9.70
2022-11-04T04:45:04.620Z,9.70
2022-11-04T04:47:32.585Z,9.70
2022-11-04T04:49:59.684Z,9.70
2022-11-04T04:52:27.168Z,9.60
2022-11-04T04:54:53.716Z,9.60
2022-11-04T04:57:20.276Z,9.60
2022-11-04T04:59:46.838Z,9.60
2022-11-04T05:02:13.521Z,9.60
2022-11-04T05:04:40.158Z,9.50
2022-11-04T05:07:10.053Z,9.50
2022-11-04T05:09:36.774Z,9.40
2022-11-04T05:12:03.345Z,9.40
2022-11-04T05:14:30.434Z,9.40
2022-11-04T05:16:56.961Z,9.40
2022-11-04T05:19:23.514Z,9.40
2022-11-04T05:21:50.041Z,9.40
2022-11-04T05:24:16.592Z,9.40
2022-11-04T05:26:43.156Z,9.40
2022-11-04T05:29:10.360Z,9.40
2022-11-04T05:31:36.930Z,9.30
2022-11-04T05:34:05.397Z,9.30
2022-11-04T05:36:33.190Z,9.30
2022-11-04T05:38:59.733Z,9.20
2022-11-04T05:41:26.263Z,9.20
2022-11-04T05:43:53.444Z,9.20
2022-11-04T05:46:20.039Z,9.10
2022-11-04T05:48:46.771Z,9.10
2022-11-04T05:51:16.486Z,9.00
2022-11-04T05:53:43.025Z,8.90
2022-11-04T05:56:09.548Z,8.80
2022-11-04T05:58:36.102Z,8.80
2022-11-04T06:01:12.228Z,8.80
2022-11-04T06:03:38.837Z,8.80
2022-11-04T06:06:05.509Z,8.80
2022-11-04T06:08:32.074Z,8.90
2022-11-04T06:10:58.616Z,9.00
2022-11-04T06:13:25.186Z,9.10
2022-11-04T06:15:51.764Z,9.10
2022-11-04T06:18:18.489Z,9.10
2022-11-04T06:20:45.062Z,9.00
2022-11-04T06:23:11.589Z,8.90
2022-11-04T06:25:38.142Z,8.90
2022-11-04T06:28:04.711Z,8.80
2022-11-04T06:30:31.264Z,8.90
2022-11-04T06:32:57.803Z,8.80
2022-11-04T06:35:24.354Z,8.90
2022-11-04T06:37:50.986Z,8.80
2022-11-04T06:40:17.542Z,8.80
2022-11-04T06:42:44.985Z,8.70
2022-11-04T06:45:11.966Z,8.70
2022-11-04T06:47:38.560Z,8.70
2022-11-04T06:50:05.302Z,8.70
2022-11-04T06:52:31.830Z,8.70
2022-11-04T06:54:58.395Z,8.70
2022-11-04T06:57:24.944Z,8.70
2022-11-04T06:59:51.491Z,8.60
2022-11-04T07:02:18.079Z,8.60
2022-11-04T07:04:44.702Z,8.70
2022-11-04T07:07:11.312Z,8.70
2022-11-04T07:09:38.370Z,8.70
2022-11-04T07:12:05.112Z,8.80
2022-11-04T07:14:31.704Z,8.80
2022-11-04T07:16:58.376Z,8.80
2022-11-04T07:19:24.918Z,8.90
2022-11-04T07:21:51.511Z,8.90
2022-11-04T07:24:18.282Z,9.00
2022-11-04T07:26:44.809Z,9.20
2022-11-04T07:29:11.394Z,9.20
2022-11-04T07:31:38.261Z,9.40
2022-11-04T07:34:04.809Z,9.30
2022-11-04T07:36:31.428Z,9.40
2022-11-04T07:38:57.984Z,9.50
2022-11-04T07:41:24.529Z,9.60
2022-11-04T07:43:56.141Z,9.60
2022-11-04T07:46:22.714Z,9.60
2022-11-04T07:48:49.292Z,9.50
2022-11-04T07:51:16.446Z,9.50
2022-11-04T07:53:43.176Z,9.50
2022-11-04T07:56:11.630Z,9.50
2022-11-04T07:58:38.195Z,9.60
2022-11-04T08:01:06.940Z,9.60
2022-11-04T08:03:33.837Z,9.70
2022-11-04T08:06:00.862Z,9.70
2022-11-04T08:08:27.606Z,9.70
2022-11-04T08:10:57.687Z,9.80
2022-11-04T08:13:26.881Z,9.90
2022-11-04T08:15:53.641Z,9.90
2022-11-04T08:18:20.169Z,10.00
2022-11-04T08:20:47.372Z,10.10
2022-11-04T08:23:13.907Z,10.10
2022-11-04T08:25:40.459Z,10.20
2022-11-04T08:28:07.014Z,10.30
2022-11-04T08:30:33.657Z,10.30
2022-11-04T08:33:00.198Z,10.30
2022-11-04T08:35:26.776Z,10.40
2022-11-04T08:37:53.335Z,10.40
2022-11-04T08:40:19.931Z,10.40
2022-11-04T08:42:46.467Z,10.40
2022-11-04T08:45:13.030Z,10.30
2022-11-04T08:47:39.566Z,10.30
2022-11-04T08:50:06.312Z,10.30
2022-11-04T08:52:32.851Z,10.30
2022-11-04T08:54:59.402Z,10.30
2022-11-04T08:57:26.069Z,10.30
2022-11-04T08:59:52.631Z,10.40
2022-11-04T09:02:19.214Z,10.40
2022-11-04T09:04:45.762Z,10.50
2022-11-04T09:07:12.427Z,10.50
2022-11-04T09:09:40.145Z,10.60
2022-11-04T09:12:09.183Z,10.60
2022-11-04T09:14:35.784Z,10.60
2022-11-04T09:17:02.428Z,10.60
2022-11-04T09:19:29.179Z,10.70
2022-11-04T09:21:55.720Z,10.90
2022-11-04T09:24:22.339Z,11.00
2022-11-04T09:26:48.972Z,11.10
2022-11-04T09:29:16.556Z,11.20
2022-11-04T09:31:43.256Z,11.30
2022-11-04T09:34:09.820Z,11.40
2022-11-04T09:36:36.410Z,11.40
2022-11-04T09:39:03.003Z,11.50
2022-11-04T09:41:42.130Z,11.60
2022-11-04T09:44:14.548Z,11.60
2022-11-04T09:46:41.112Z,11.80
2022-11-04T09:49:08.687Z,12.00
2022-11-04T09:54:22.826Z,12.20
2022-11-04T09:56:51.187Z,12.40
2022-11-04T09:59:20.400Z,12.70
2022-11-04T10:02:05.802Z,12.80
2022-11-04T10:04:32.414Z,12.70
2022-11-04T10:07:17.894Z,12.70
2022-11-04T10:09:53.552Z,12.60
2022-11-04T10:12:35.360Z,12.60
2022-11-04T10:15:26.742Z,12.50
2022-11-04T10:18:03.083Z,12.40
2022-11-04T10:20:43.947Z,12.40
2022-11-04T10:23:17.876Z,12.40
2022-11-04T10:25:48.337Z,12.50
2022-11-04T10:28:19.388Z,12.50
2022-11-04T10:30:47.008Z,12.50
2022-11-04T10:33:19.870Z,12.60
2022-11-04T10:36:00.308Z,12.70
2022-11-04T10:38:41.952Z,12.70
2022-11-04T10:41:14.693Z,12.70
2022-11-04T10:43:41.267Z,12.80
2022-11-04T10:46:11.636Z,12.90
2022-11-04T10:48:43.851Z,13.00
2022-11-04T10:51:10.427Z,13.10
2022-11-04T10:53:37.672Z,13.10
2022-11-04T10:56:30.733Z,13.20
2022-11-04T10:58:57.316Z,13.10
2022-11-04T11:01:23.948Z,13.20
2022-11-04T11:03:50.558Z,13.30
2022-11-04T11:06:17.168Z,13.50
2022-11-04T11:08:43.781Z,13.60
2022-11-04T11:11:10.810Z,13.70
2022-11-04T11:13:38.527Z,13.80
2022-11-04T11:16:06.317Z,13.90
2022-11-04T11:18:32.867Z,13.80
2022-11-04T11:21:16.339Z,13.70
2022-11-04T11:23:43.687Z,13.60
2022-11-04T11:26:12.608Z,13.60
2022-11-04T11:28:40.452Z,13.50
2022-11-04T11:31:14.368Z,13.40
2022-11-04T11:33:42.055Z,13.20
2022-11-04T11:36:14.683Z,13.30
2022-11-04T11:39:01.307Z,13.60
2022-11-04T11:41:34.756Z,14.00
2022-11-04T11:44:21.198Z,14.10
2022-11-04T11:46:54.460Z,14.40
2022-11-04T11:49:25.351Z,14.30
2022-11-04T11:51:51.925Z,14.10
2022-11-04T11:54:22.714Z,14.00
2022-11-04T12:03:11.823Z,14.30
2022-11-04T12:11:15.974Z,15.10
2022-11-04T12:13:44.302Z,15.20
2022-11-04T12:16:11.039Z,15.00
2022-11-04T12:18:56.269Z,14.70
2022-11-04T12:21:33.197Z,14.70
2022-11-04T12:24:23.816Z,14.70
2022-11-04T12:26:56.895Z,14.90
2022-11-04T12:29:36.913Z,15.00
2022-11-04T12:32:11.127Z,14.90
2022-11-04T12:34:45.349Z,14.90
2022-11-04T12:37:11.884Z,14.90
2022-11-04T12:39:53.728Z,14.90
2022-11-04T12:42:28.096Z,14.80
2022-11-04T12:45:07.909Z,14.50
2022-11-04T12:47:43.778Z,14.30
2022-11-04T12:50:16.358Z,14.10
2022-11-04T12:52:52.063Z,14.00
2022-11-04T12:55:18.603Z,13.90
2022-11-04T12:57:53.725Z,13.90
2022-11-04T13:00:25.357Z,13.90
2022-11-04T13:02:54.239Z,14.00
2022-11-04T13:05:30.031Z,14.20
2022-11-04T13:07:57.885Z,14.30
2022-11-04T13:10:32.616Z,14.30
2022-11-04T13:13:01.967Z,14.50
2022-11-04T13:15:28.995Z,14.50
2022-11-04T13:18:00.311Z,14.40
2022-11-04T13:20:40.151Z,14.40
2022-11-04T13:23:07.768Z,14.40
2022-11-04T13:25:36.463Z,14.30
2022-11-04T13:28:03.108Z,14.10
2022-11-04T13:30:29.621Z,14.00
2022-11-04T13:33:04.930Z,13.90
2022-11-04T13:35:35.320Z,13.90
2022-11-04T13:38:05.966Z,13.80
2022-11-04T13:40:41.780Z,13.90
2022-11-04T13:43:31.692Z,13.90
2022-11-04T13:45:58.239Z,13.90
2022-11-04T13:48:26.412Z,13.90
2022-11-04T13:50:57.028Z,14.00
2022-11-04T13:53:27.960Z,13.90
2022-11-04T13:55:56.231Z,13.90
2022-11-04T13:58:27.900Z,13.80
2022-11-04T14:01:14.104Z,13.80
2022-11-04T14:03:50.753Z,13.80
2022-11-04T14:06:17.312Z,13.80
2022-11-04T14:09:02.659Z,13.80
2022-11-04T14:11:29.247Z,13.70
2022-11-04T14:14:02.920Z,13.70
2022-11-04T14:16:29.434Z,13.60
2022-11-04T14:18:55.975Z,13.50
2022-11-04T14:21:26.225Z,13.50
2022-11-04T14:23:53.394Z,13.50
2022-11-04T14:26:21.043Z,13.40
2022-11-04T14:28:48.009Z,13.20
2022-11-04T14:31:17.708Z,13.20
2022-11-04T14:33:54.296Z,13.10
2022-11-04T14:36:20.885Z,13.10
2022-11-04T14:39:02.739Z,13.10
2022-11-04T14:41:29.314Z,13.00
2022-11-04T14:43:57.065Z,12.90
2022-11-04T14:46:25.516Z,12.90
2022-11-04T14:48:53.338Z,12.90
2022-11-04T14:51:23.003Z,12.80
2022-11-04T14:53:49.532Z,12.80
2022-11-04T14:56:23.237Z,12.70
2022-11-04T14:58:57.169Z,12.70
2022-11-04T15:01:26.520Z,12.60
2022-11-04T15:04:11.712Z,12.60
2022-11-04T15:06:55.545Z,12.60
2022-11-04T15:09:26.721Z,12.50
2022-11-04T15:12:25.109Z,12.50
2022-11-04T15:14:52.363Z,12.40
2022-11-04T15:17:19.560Z,12.40
2022-11-04T15:19:48.035Z,12.40
2022-11-04T15:22:14.726Z,12.30
2022-11-04T15:24:41.702Z,12.20
2022-11-04T15:27:10.395Z,12.20
2022-11-04T15:29:36.976Z,12.20
2022-11-04T15:32:05.110Z,12.10
2022-11-04T15:34:32.063Z,12.10
2022-11-04T15:37:04.146Z,12.00
2022-11-04T15:39:31.553Z,12.00
2022-11-04T15:42:16.945Z,12.00
2022-11-04T15:44:47.576Z,12.00
2022-11-04T15:47:17.250Z,11.90
2022-11-04T15:49:43.818Z,11.80
2022-11-04T15:52:16.632Z,11.80
2022-11-04T15:54:43.618Z,11.70
2022-11-04T15:57:14.455Z,11.60
2022-11-04T15:59:45.142Z,11.60
2022-11-04T16:02:24.121Z,11.60
2022-11-04T16:05:02.747Z,11.60
2022-11-04T16:07:30.648Z,11.50
2022-11-04T16:09:57.402Z,11.60
2022-11-04T16:12:26.801Z,11.50
2022-11-04T16:14:56.762Z,11.50
2022-11-04T16:17:23.449Z,11.40
2022-11-04T16:19:57.163Z,11.40
2022-11-04T16:22:27.619Z,11.40
2022-11-04T16:24:54.218Z,11.40
2022-11-04T16:27:21.032Z,11.40
2022-11-04T16:29:51.679Z,11.30
2022-11-04T16:32:19.604Z,11.30
2022-11-04T16:34:46.847Z,11.20
2022-11-04T16:37:13.531Z,11.20
2022-11-04T16:39:40.156Z,11.10
2022-11-04T16:42:06.816Z,11.20
2022-11-04T16:44:33.418Z,11.20
2022-11-04T16:46:59.968Z,11.10
2022-11-04T16:49:26.512Z,11.20
2022-11-04T16:51:54.166Z,11.20
2022-11-04T16:54:20.858Z,11.10
2022-11-04T16:56:47.432Z,11.10
2022-11-04T16:59:13.980Z,11.10
2022-11-04T17:01:40.634Z,11.10
2022-11-04T17:04:07.367Z,11.10
2022-11-04T17:06:34.423Z,11.10
2022-11-04T17:09:01.356Z,11.10
2022-11-04T17:11:30.167Z,11.10
2022-11-04T17:13:56.742Z,11.10
2022-11-04T17:16:23.320Z,11.10
2022-11-04T17:18:50.021Z,11.10
2022-11-04T17:21:17.116Z,11.10
2022-11-04T17:23:44.579Z,11.10
2022-11-04T17:26:14.298Z,11.10
2022-11-04T17:28:41.388Z,11.00
2022-11-04T17:31:08.036Z,11.00
2022-11-04T17:33:34.687Z,10.90
2022-11-04T17:36:07.321Z,10.90
2022-11-04T17:38:34.298Z,10.90
2022-11-04T17:41:19.763Z,10.90
2022-11-04T17:44:01.641Z,10.90
2022-11-04T17:46:34.275Z,10.90
2022-11-04T17:49:19.916Z,10.80
2022-11-04T17:51:47.294Z,10.90
2022-11-04T17:54:14.062Z,10.80
2022-11-04T17:56:40.788Z,10.70
2022-11-04T17:59:07.563Z,10.70
2022-11-04T18:01:34.455Z,10.70
2022-11-04T18:04:01.426Z,10.60
2022-11-04T18:06:29.555Z,10.60
2022-11-04T18:08:56.262Z,10.60
2022-11-04T18:11:41.783Z,10.50
2022-11-04T18:14:13.767Z,10.50
2022-11-04T18:16:43.225Z,10.40
2022-11-04T18:19:09.848Z,10.50
2022-11-04T18:21:36.491Z,10.40
2022-11-04T18:24:04.170Z,10.40
2022-11-04T18:26:30.715Z,10.40
2022-11-04T18:28:57.795Z,10.30
2022-11-04T18:31:25.457Z,10.30
2022-11-04T18:33:52.019Z,10.30
2022-11-04T18:36:18.562Z,10.20
2022-11-04T18:38:45.597Z,10.30
2022-11-04T18:41:12.147Z,10.30
2022-11-04T18:43:38.692Z,10.20
2022-11-04T18:46:09.092Z,10.20
2022-11-04T18:48:35.703Z,10.20
2022-11-04T18:51:02.353Z,10.20
2022-11-04T18:53:28.912Z,10.20
2022-11-04T18:55:55.478Z,10.20
2022-11-04T18:58:22.470Z,10.20
2022-11-04T19:00:49.023Z,10.20
2022-11-04T19:03:15.568Z,10.20
2022-11-04T19:05:42.291Z,10.20
2022-11-04T19:08:09.174Z,10.20
2022-11-04T19:10:51.729Z,10.20
2022-11-04T19:13:23.383Z,10.20
2022-11-04T19:15:50.007Z,10.20
2022-11-04T19:18:16.757Z,10.20
2022-11-04T19:20:43.629Z,10.10
2022-11-04T19:23:10.693Z,10.10
2022-11-04T19:25:41.173Z,10.10
2022-11-04T19:28:32.654Z,10.10
2022-11-04T19:31:01.983Z,10.10
2022-11-04T19:33:29.007Z,10.10
2022-11-04T19:35:55.912Z,10.20
2022-11-04T19:38:24.272Z,10.20
2022-11-04T19:40:52.222Z,10.20
2022-11-04T19:43:19.698Z,10.20
2022-11-04T19:45:46.420Z,10.20
2022-11-04T19:48:13.460Z,10.20
2022-11-04T19:50:47.320Z,10.20
2022-11-04T19:53:14.187Z,10.30
2022-11-04T19:55:40.994Z,10.20
2022-11-04T19:58:08.151Z,10.20
2022-11-04T20:00:35.022Z,10.20
2022-11-04T20:03:01.614Z,10.20
2022-11-04T20:05:28.258Z,10.20
2022-11-04T20:07:55.010Z,10.20
2022-11-04T20:10:22.313Z,10.10
2022-11-04T20:13:07.883Z,10.10
2022-11-04T20:15:34.522Z,10.10
2022-11-04T20:18:01.054Z,10.10
2022-11-04T20:20:27.606Z,10.10
2022-11-04T20:22:54.407Z,10.10
2022-11-04T20:25:20.963Z,10.10
2022-11-04T20:27:47.514Z,10.10
2022-11-04T20:30:14.063Z,10.10
2022-11-04T20:32:40.625Z,10.10
2022-11-04T20:35:07.290Z,10.10
2022-11-04T20:37:33.839Z,10.10
2022-11-04T20:40:00.509Z,10.00
2022-11-04T20:42:27.121Z,10.00
2022-11-04T20:44:53.754Z,10.00
2022-11-04T20:47:20.324Z,9.90
2022-11-04T20:49:47.368Z,10.00
2022-11-04T20:52:13.991Z,9.90
2022-11-04T20:54:40.544Z,9.90
2022-11-04T20:57:07.801Z,9.90
2022-11-04T20:59:34.359Z,9.80
2022-11-04T21:02:01.070Z,9.80
2022-11-04T21:04:31.831Z,9.80
2022-11-04T21:07:02.770Z,9.80
2022-11-04T21:09:29.797Z,9.80
2022-11-04T21:11:57.866Z,9.80
2022-11-04T21:14:24.398Z,9.70
2022-11-04T21:16:50.982Z,9.70
2022-11-04T21:19:17.732Z,9.70
2022-11-04T21:21:44.390Z,9.70
2022-11-04T21:24:11.503Z,9.70
2022-11-04T21:26:38.419Z,9.70
2022-11-04T21:29:05.987Z,9.70
2022-11-04T21:31:32.957Z,9.70
2022-11-04T21:33:59.629Z,9.70
2022-11-04T21:36:26.206Z,9.70
2022-11-04T21:38:52.752Z,9.70
2022-11-04T21:41:22.958Z,9.70
2022-11-04T21:43:53.373Z,9.70
2022-11-04T21:46:19.933Z,9.70
2022-11-04T21:48:46.697Z,9.70
2022-11-04T21:51:14.052Z,9.70
2022-11-04T21:53:40.589Z,9.60
2022-11-04T21:56:08.366Z,9.60
2022-11-04T21:58:35.010Z,9.60
2022-11-04T22:01:01.709Z,9.60
2022-11-04T22:03:28.329Z,9.60
2022-11-04T22:05:58.904Z,9.50
2022-11-04T22:08:25.483Z,9.50
2022-11-04T22:10:52.100Z,9.40
2022-11-04T22:13:18.642Z,9.40
2022-11-04T22:16:03.598Z,9.30
2022-11-04T22:18:30.865Z,9.30
2022-11-04T22:20:57.580Z,9.20
2022-11-04T22:23:24.142Z,9.20
2022-11-04T22:25:50.684Z,9.20
2022-11-04T22:28:17.258Z,9.20
2022-11-04T22:30:43.862Z,9.20
2022-11-04T22:33:10.859Z,9.20
2022-11-04T22:35:37.662Z,9.20
2022-11-04T22:38:04.233Z,9.20
2022-11-04T22:40:30.758Z,9.30
2022-11-04T22:42:57.322Z,9.30
2022-11-04T22:45:23.854Z,9.30
2022-11-04T22:47:50.421Z,9.30
2022-11-04T22:50:17.379Z,9.30
2022-11-04T22:52:43.997Z,9.30
2022-11-04T22:55:11.570Z,9.30
2022-11-04T22:57:38.122Z,9.30
2022-11-04T23:00:05.910Z,9.30
2022-11-04T23:02:36.807Z,9.30
2022-11-04T23:05:04.106Z,9.30
2022-11-04T23:07:30.773Z,9.30
2022-11-04T23:10:15.804Z,9.30
2022-11-04T23:13:00.938Z,9.30
2022-11-04T23:15:46.034Z,9.30
2022-11-04T23:18:31.193Z,9.20
2022-11-04T23:21:16.504Z,9.20
2022-11-04T23:24:01.831Z,9.20
2022-11-04T23:26:28.541Z,9.20
2022-11-04T23:29:13.698Z,9.10
2022-11-04T23:31:40.388Z,9.10
2022-11-04T23:34:25.718Z,9.00
2022-11-04T23:37:10.794Z,9.00
2022-11-04T23:39:37.665Z,9.00
2022-11-04T23:42:16.469Z,8.90
2022-11-04T23:45:04.827Z,8.90
2022-11-04T23:47:50.801Z,9.00
2022-11-04T23:50:36.135Z,9.00
2022-11-04T23:53:21.542Z,9.00
2022-11-04T23:56:06.591Z,9.00
2022-11-04T23:58:51.929Z,9.10
